Search for airport 
image banner adimage banner adimage banner ad
image banner ad

KSBA - Santa Barbara Muni

Located in Santa Barbara, United States

ICAO - SBA, IATA - SBA

Data provided by Airmate  

General information

Coordinates: N34°25'34" W119°50'29"
Elevation is 13 feet MSL.
Magnetic variation is 14° East
Rated:
View ratings:
[VIEW]
View others Airports in California

Operational data

Special qualification required
Current time UTC:
Current local time:
Weather
METAR: KSBA 211153Z AUTO 00000KT 8SM OVC006 14/13 A2994 RMK AO2 SLP138 T01440133 10156 20144 53002
TAF: KSBA 211158Z 2112/2212 VRB03KT P6SM OVC006 FM211700 16005KT P6SM OVC010 FM212000 25010KT P6SM SCT012 FM220300 VRB03KT P6SM SKC FM220900 VRB03KT P6SM OVC007
View NOTAMs / SUP AIP / TFR affecting this airport [VIEW]
Communications frequencies: [VIEW]

Runways:

RWY identifierQFULength (ft)Width (ft)SurfaceLDA (ft)
0789°6052150ASPH6052
25269°6052150ASPH6052
15R166°4184100ASPH4184
33L346°4184100ASPH4184
15L166°418075ASPH3963
33R346°418075ASPH4180

Airport contact information

Address: Santa Barbara United States

Other aviation service providers

Flight schools

Spitfire Aviation

Spitfire Aviation

Above All Aviation

Above All Aviation

Nanco Helicopters

Nanco Helicopters

Satellite view of KSBA